Morongo Valley, California
Current Conditions -  °F | °C
As of 1:53 PM on Monday 24 Nov 2014 (Local Time) from KPSP Reporting Station
Scattered Clouds Scattered Clouds  
Wind Chill: 79°   Ceiling: Unl
Heat Index: 79°   Visibility: 10mi
Dew Point:   Wind: 17mph
Humidity: 7%   Direction: 10°N
Pressure: 30.25"   Gusts: 22mph
Location:  34.06°N, 116.59°W
Report Text: KPSP 242153Z 01015G19KT 10SM SCT200 26/M13 A3025 RMK AO2 SLP243 T02611128
Loading
Personal Weather Stations






























Interactive Weather Map New forecast layout! Learn more

10-Day Weather Forecast

Advertisements
Track Severe Weather on mobile